createdAt,value
2023-01-30T00:01:19.510Z,4056.5
2023-01-30T00:07:02.658Z,4053
2023-01-30T00:12:53.953Z,4055
2023-01-30T00:18:33.667Z,4051.8
2023-01-30T00:24:11.454Z,4050.7
2023-01-30T00:30:05.083Z,4053.8
2023-01-30T00:36:04.189Z,4052.7
2023-01-30T00:41:47.298Z,4052
2023-01-30T00:47:24.956Z,4048.3
2023-01-30T00:53:06.174Z,4051
2023-01-30T00:58:49.981Z,4050
2023-01-30T01:05:27.586Z,4046.8
2023-01-30T01:11:03.892Z,4047.8
2023-01-30T01:16:40.088Z,4051.8
2023-01-30T01:22:18.209Z,4048.8
2023-01-30T01:28:09.321Z,4048.6
2023-01-30T01:33:55.703Z,4047
2023-01-30T01:39:39.352Z,4044.6
2023-01-30T01:45:21.333Z,4048.6
2023-01-30T01:50:59.336Z,4045.8
2023-01-30T01:56:42.123Z,4044
2023-01-30T02:02:19.094Z,4046.6
2023-01-30T02:07:54.432Z,4045.8
2023-01-30T02:13:50.453Z,4044
2023-01-30T02:19:46.625Z,4045.3
2023-01-30T02:25:25.178Z,4044.8
2023-01-30T02:31:02.292Z,4043.1
2023-01-30T02:36:41.830Z,4045.6
2023-01-30T02:42:19.197Z,4041.3
2023-01-30T02:48:20.005Z,4042.9
2023-01-30T02:53:54.946Z,4042.6
2023-01-30T02:59:36.739Z,4043.1
2023-01-30T03:05:12.755Z,4043.8
2023-01-30T03:10:59.006Z,4041.3
2023-01-30T03:16:37.836Z,4040.1
2023-01-30T03:22:16.231Z,4041.1
2023-01-30T03:27:51.338Z,4039.9
2023-01-30T03:33:26.171Z,4041.3
2023-01-30T03:39:09.485Z,4040.6
2023-01-30T03:44:45.144Z,4040.6
2023-01-30T03:50:32.903Z,4040.8
2023-01-30T03:56:08.544Z,4040.1
2023-01-30T04:02:06.149Z,4040.6
2023-01-30T04:08:24.237Z,4040.6
2023-01-30T04:14:28.139Z,4037.8
2023-01-30T04:20:17.877Z,4040.6
2023-01-30T04:25:57.071Z,4038.6
2023-01-30T04:31:33.219Z,4037.8
2023-01-30T04:37:23.814Z,4038.9
2023-01-30T04:43:02.044Z,4039.4
2023-01-30T04:49:18.923Z,4036.8
2023-01-30T04:54:54.666Z,4034.9
2023-01-30T05:00:30.133Z,4035.1
2023-01-30T05:06:20.265Z,4036.1
2023-01-30T05:11:55.701Z,4037.1
2023-01-30T05:17:31.270Z,4035.2
2023-01-30T05:23:24.194Z,4033.6
2023-01-30T05:29:27.337Z,4034.1
2023-01-30T05:35:04.156Z,4034.4
2023-01-30T05:40:43.102Z,4035.7
2023-01-30T05:46:26.896Z,4034.4
2023-01-30T05:52:01.869Z,4033.9
2023-01-30T05:57:37.884Z,4032.4
2023-01-30T06:03:27.526Z,4034.6
2023-01-30T06:09:02.862Z,4033.1
2023-01-30T06:14:44.711Z,4034.9
2023-01-30T06:20:20.472Z,4029.2
2023-01-30T06:26:07.381Z,4031.4
2023-01-30T06:31:52.979Z,4032.2
2023-01-30T06:37:49.269Z,4027.9
2023-01-30T06:43:25.825Z,4031.1
2023-01-30T06:49:12.549Z,4032.4
2023-01-30T06:55:23.347Z,4030.7
2023-01-30T07:01:31.225Z,4028.4
2023-01-30T07:07:08.619Z,4028.5
2023-01-30T07:12:44.098Z,4027.5
2023-01-30T07:18:19.814Z,4027.7
2023-01-30T07:23:56.207Z,4032.6
2023-01-30T07:29:36.538Z,4023.5
2023-01-30T07:35:12.200Z,4029
2023-01-30T07:40:48.374Z,4036.2
2023-01-30T07:46:23.281Z,4034.4
2023-01-30T07:52:10.094Z,4051.8
2023-01-30T07:57:45.758Z,4051
2023-01-30T08:03:42.266Z,4032.1
2023-01-30T08:09:18.253Z,4024
2023-01-30T08:14:56.016Z,4033.7
2023-01-30T08:20:31.600Z,4038.6
2023-01-30T08:26:06.371Z,4038.8
2023-01-30T08:31:41.783Z,4051.5
2023-01-30T08:37:24.563Z,4065.7
2023-01-30T08:43:00.300Z,4044.1
2023-01-30T08:48:51.429Z,4054.3
2023-01-30T08:54:27.491Z,4063.6
2023-01-30T09:00:03.355Z,4062.9
2023-01-30T09:05:39.681Z,4069.7
2023-01-30T09:11:16.403Z,4073.1
2023-01-30T09:16:52.304Z,4077
2023-01-30T09:22:27.614Z,4082.3
2023-01-30T09:28:03.233Z,4066.1
2023-01-30T09:33:38.410Z,4175.1
2023-01-30T09:39:13.665Z,4178.6
2023-01-30T09:44:51.005Z,4168.6
2023-01-30T09:50:28.656Z,4169.6
2023-01-30T09:56:05.352Z,4179.6
2023-01-30T10:01:40.554Z,4159.4
2023-01-30T10:07:22.197Z,4169.4
2023-01-30T10:13:09.438Z,4169.4
2023-01-30T10:18:46.659Z,4154
2023-01-30T10:24:22.888Z,4161.5
2023-01-30T10:30:28.117Z,4152
2023-01-30T10:36:04.632Z,4157.9
2023-01-30T10:41:40.390Z,4158.9
2023-01-30T10:47:49.296Z,4150.3
2023-01-30T10:53:44.458Z,4164
2023-01-30T10:59:20.733Z,4156.8
2023-01-30T11:04:57.001Z,4125.2
2023-01-30T11:10:33.473Z,4128
2023-01-30T11:16:09.501Z,4155.5
2023-01-30T11:21:45.984Z,4147.5
2023-01-30T11:27:23.495Z,4180.6
2023-01-30T11:33:01.087Z,4165.7
2023-01-30T11:38:36.292Z,4196.7
2023-01-30T11:44:12.298Z,4197.7
2023-01-30T11:50:44.962Z,4195.7
2023-01-30T11:56:24.856Z,4170.2
2023-01-30T12:02:03.048Z,4194.7
2023-01-30T12:07:38.826Z,4168.1
2023-01-30T12:13:15.058Z,4173.4
2023-01-30T12:19:00.402Z,4184.8
2023-01-30T12:24:40.401Z,4178.5
2023-01-30T12:30:17.790Z,4199.1
2023-01-30T12:35:53.639Z,4160.7
2023-01-30T12:41:28.648Z,4182.1
2023-01-30T12:47:03.796Z,4177.3
2023-01-30T12:52:39.444Z,4190.5
2023-01-30T12:58:20.708Z,4169.7
2023-01-30T13:03:55.851Z,4178.3
2023-01-30T13:09:40.888Z,4193.9
2023-01-30T13:15:16.380Z,4169.6
2023-01-30T13:20:51.768Z,4207.6
2023-01-30T13:26:27.356Z,4182
2023-01-30T13:32:19.590Z,4194.9
2023-01-30T13:37:59.695Z,4206.6
2023-01-30T13:43:39.943Z,4181.3
2023-01-30T13:49:16.124Z,4173.1
2023-01-30T13:54:56.586Z,4204.6
2023-01-30T14:00:35.083Z,4197.5
2023-01-30T14:06:14.870Z,4202.7
2023-01-30T14:11:50.908Z,4174.6
2023-01-30T14:17:26.750Z,4209.9
2023-01-30T14:23:01.874Z,4191
2023-01-30T14:28:38.465Z,4183.3
2023-01-30T14:34:24.226Z,4206.3
2023-01-30T14:40:00.094Z,4189.3
2023-01-30T14:45:41.279Z,4196.5
2023-01-30T14:51:20.777Z,4191.5
2023-01-30T14:56:56.221Z,4194.5
2023-01-30T15:02:50.377Z,4197.2
2023-01-30T15:08:25.969Z,4202.7
2023-01-30T15:14:01.340Z,4202.1
2023-01-30T15:19:38.040Z,4211.1
2023-01-30T15:25:13.830Z,4184
2023-01-30T15:30:49.985Z,4170.6
2023-01-30T15:36:27.108Z,4159.9
2023-01-30T15:42:03.421Z,4158.9
2023-01-30T15:47:42.035Z,4160.7
2023-01-30T15:53:19.151Z,4155.7
2023-01-30T15:58:54.449Z,4153.8
2023-01-30T16:04:30.375Z,4157.4
2023-01-30T16:10:09.696Z,4153.5
2023-01-30T16:15:46.261Z,4150.8
2023-01-30T16:21:22.318Z,4151.3
2023-01-30T16:27:02.137Z,4149
2023-01-30T16:32:37.663Z,4146.5
2023-01-30T16:38:12.764Z,4143.4
2023-01-30T16:43:47.510Z,4141.9
2023-01-30T16:49:46.089Z,4135.7
2023-01-30T16:55:19.079Z,4133.9
2023-01-30T17:00:56.429Z,4134.6
2023-01-30T17:06:51.277Z,4133.4
2023-01-30T17:12:26.443Z,4131.7
2023-01-30T17:18:09.127Z,4130.7
2023-01-30T17:24:15.936Z,4123.7
2023-01-30T17:30:00.680Z,4127.2
2023-01-30T17:35:57.311Z,4128.2
2023-01-30T17:41:35.916Z,4128.4
2023-01-30T17:47:20.922Z,4122.3
2023-01-30T17:52:56.669Z,4124
2023-01-30T17:58:32.163Z,4121.5
2023-01-30T18:04:14.505Z,4122.5
2023-01-30T18:10:06.630Z,4122.5
2023-01-30T18:15:42.326Z,4123.3
